sensor_id;sensor_type;location;lat;lon;timestamp;P1;durP1;ratioP1;P2;durP2;ratioP2
21128;SDS011;10722;51.910;8.352;2023-02-02T00:00:03;28.17;;;4.57;;
21128;SDS011;10722;51.910;8.352;2023-02-02T00:02:49;26.00;;;4.80;;
21128;SDS011;10722;51.910;8.352;2023-02-02T00:05:34;30.13;;;4.40;;
21128;SDS011;10722;51.910;8.352;2023-02-02T00:08:20;29.17;;;4.40;;
21128;SDS011;10722;51.910;8.352;2023-02-02T00:11:06;29.93;;;4.70;;
21128;SDS011;10722;51.910;8.352;2023-02-02T00:13:51;28.80;;;4.30;;
21128;SDS011;10722;51.910;8.352;2023-02-02T00:16:38;26.07;;;4.10;;
21128;SDS011;10722;51.910;8.352;2023-02-02T00:19:26;25.60;;;4.00;;
21128;SDS011;10722;51.910;8.352;2023-02-02T00:22:13;25.77;;;4.23;;
21128;SDS011;10722;51.910;8.352;2023-02-02T00:24:58;27.10;;;4.10;;
21128;SDS011;10722;51.910;8.352;2023-02-02T00:27:43;26.47;;;4.10;;
21128;SDS011;10722;51.910;8.352;2023-02-02T00:30:28;28.80;;;4.60;;
21128;SDS011;10722;51.910;8.352;2023-02-02T00:33:14;23.87;;;3.80;;
21128;SDS011;10722;51.910;8.352;2023-02-02T00:35:59;25.17;;;3.90;;
21128;SDS011;10722;51.910;8.352;2023-02-02T00:38:44;26.73;;;3.90;;
21128;SDS011;10722;51.910;8.352;2023-02-02T00:41:30;25.50;;;3.93;;
21128;SDS011;10722;51.910;8.352;2023-02-02T00:44:15;24.60;;;3.83;;
21128;SDS011;10722;51.910;8.352;2023-02-02T00:47:01;22.43;;;3.93;;
21128;SDS011;10722;51.910;8.352;2023-02-02T00:49:46;19.40;;;3.20;;
21128;SDS011;10722;51.910;8.352;2023-02-02T00:52:31;24.00;;;4.17;;
21128;SDS011;10722;51.910;8.352;2023-02-02T00:55:17;29.63;;;3.93;;
21128;SDS011;10722;51.910;8.352;2023-02-02T00:58:03;23.70;;;3.40;;
21128;SDS011;10722;51.910;8.352;2023-02-02T01:00:48;26.97;;;3.70;;
21128;SDS011;10722;51.910;8.352;2023-02-02T01:03:33;21.10;;;3.23;;
21128;SDS011;10722;51.910;8.352;2023-02-02T01:06:18;21.87;;;3.30;;
21128;SDS011;10722;51.910;8.352;2023-02-02T01:09:04;21.80;;;3.23;;
21128;SDS011;10722;51.910;8.352;2023-02-02T01:11:49;21.47;;;3.20;;
21128;SDS011;10722;51.910;8.352;2023-02-02T01:14:34;20.23;;;3.23;;
21128;SDS011;10722;51.910;8.352;2023-02-02T01:17:19;21.57;;;3.27;;
21128;SDS011;10722;51.910;8.352;2023-02-02T01:20:05;22.30;;;3.70;;
21128;SDS011;10722;51.910;8.352;2023-02-02T01:22:52;20.50;;;3.20;;
21128;SDS011;10722;51.910;8.352;2023-02-02T01:25:36;23.83;;;3.40;;
21128;SDS011;10722;51.910;8.352;2023-02-02T01:28:22;20.07;;;2.97;;
21128;SDS011;10722;51.910;8.352;2023-02-02T01:31:12;23.07;;;3.40;;
21128;SDS011;10722;51.910;8.352;2023-02-02T01:33:59;23.60;;;3.57;;
21128;SDS011;10722;51.910;8.352;2023-02-02T01:36:45;20.67;;;3.10;;
21128;SDS011;10722;51.910;8.352;2023-02-02T01:39:30;23.20;;;3.23;;
21128;SDS011;10722;51.910;8.352;2023-02-02T01:42:20;27.07;;;3.80;;
21128;SDS011;10722;51.910;8.352;2023-02-02T01:47:58;25.47;;;3.97;;
21128;SDS011;10722;51.910;8.352;2023-02-02T01:50:44;24.93;;;3.03;;
21128;SDS011;10722;51.910;8.352;2023-02-02T01:53:34;19.70;;;2.90;;
21128;SDS011;10722;51.910;8.352;2023-02-02T01:56:23;19.57;;;2.80;;
21128;SDS011;10722;51.910;8.352;2023-02-02T01:59:12;18.90;;;2.83;;
21128;SDS011;10722;51.910;8.352;2023-02-02T02:02:00;24.63;;;3.20;;
21128;SDS011;10722;51.910;8.352;2023-02-02T02:04:47;16.50;;;2.83;;
21128;SDS011;10722;51.910;8.352;2023-02-02T02:07:33;19.40;;;3.57;;
21128;SDS011;10722;51.910;8.352;2023-02-02T02:10:19;21.90;;;3.43;;
21128;SDS011;10722;51.910;8.352;2023-02-02T02:13:04;21.37;;;3.23;;
21128;SDS011;10722;51.910;8.352;2023-02-02T02:15:57;17.30;;;2.67;;
21128;SDS011;10722;51.910;8.352;2023-02-02T02:30:53;23.23;;;3.50;;
21128;SDS011;10722;51.910;8.352;2023-02-02T02:37:00;22.03;;;3.13;;
21128;SDS011;10722;51.910;8.352;2023-02-02T02:42:42;21.87;;;2.83;;
21128;SDS011;10722;51.910;8.352;2023-02-02T02:45:33;23.07;;;3.23;;
21128;SDS011;10722;51.910;8.352;2023-02-02T02:48:21;23.27;;;3.53;;
21128;SDS011;10722;51.910;8.352;2023-02-02T02:54:28;22.00;;;3.23;;
21128;SDS011;10722;51.910;8.352;2023-02-02T03:03:44;17.83;;;3.30;;
21128;SDS011;10722;51.910;8.352;2023-02-02T03:09:33;21.73;;;3.30;;
21128;SDS011;10722;51.910;8.352;2023-02-02T03:12:22;21.07;;;3.30;;
21128;SDS011;10722;51.910;8.352;2023-02-02T03:15:08;22.40;;;3.50;;
21128;SDS011;10722;51.910;8.352;2023-02-02T03:17:54;21.80;;;3.50;;
21128;SDS011;10722;51.910;8.352;2023-02-02T03:20:39;23.37;;;3.77;;
21128;SDS011;10722;51.910;8.352;2023-02-02T03:23:25;23.20;;;3.73;;
21128;SDS011;10722;51.910;8.352;2023-02-02T03:26:11;24.90;;;3.97;;
21128;SDS011;10722;51.910;8.352;2023-02-02T03:28:57;23.57;;;3.93;;
21128;SDS011;10722;51.910;8.352;2023-02-02T03:31:42;21.40;;;3.80;;
21128;SDS011;10722;51.910;8.352;2023-02-02T03:34:27;21.03;;;3.70;;
21128;SDS011;10722;51.910;8.352;2023-02-02T03:37:12;21.47;;;4.73;;
21128;SDS011;10722;51.910;8.352;2023-02-02T03:39:58;23.10;;;3.87;;
21128;SDS011;10722;51.910;8.352;2023-02-02T03:42:43;21.70;;;3.57;;
21128;SDS011;10722;51.910;8.352;2023-02-02T03:45:29;27.90;;;4.50;;
21128;SDS011;10722;51.910;8.352;2023-02-02T03:48:14;21.27;;;4.20;;
21128;SDS011;10722;51.910;8.352;2023-02-02T03:51:01;23.17;;;4.60;;
21128;SDS011;10722;51.910;8.352;2023-02-02T03:53:49;29.47;;;4.47;;
21128;SDS011;10722;51.910;8.352;2023-02-02T03:56:35;23.97;;;4.60;;
21128;SDS011;10722;51.910;8.352;2023-02-02T03:59:20;24.00;;;4.53;;
21128;SDS011;10722;51.910;8.352;2023-02-02T04:02:05;25.77;;;4.47;;
21128;SDS011;10722;51.910;8.352;2023-02-02T04:04:50;26.67;;;4.97;;
21128;SDS011;10722;51.910;8.352;2023-02-02T04:07:36;24.40;;;4.87;;
21128;SDS011;10722;51.910;8.352;2023-02-02T04:10:23;28.67;;;5.23;;
21128;SDS011;10722;51.910;8.352;2023-02-02T04:13:08;31.53;;;5.23;;
21128;SDS011;10722;51.910;8.352;2023-02-02T04:15:58;27.13;;;5.20;;
21128;SDS011;10722;51.910;8.352;2023-02-02T04:18:43;25.60;;;5.27;;
21128;SDS011;10722;51.910;8.352;2023-02-02T04:21:29;28.83;;;5.13;;
21128;SDS011;10722;51.910;8.352;2023-02-02T04:24:14;29.80;;;5.03;;
21128;SDS011;10722;51.910;8.352;2023-02-02T04:26:59;36.67;;;7.30;;
21128;SDS011;10722;51.910;8.352;2023-02-02T04:29:44;29.10;;;5.83;;
21128;SDS011;10722;51.910;8.352;2023-02-02T04:32:30;33.13;;;5.77;;
21128;SDS011;10722;51.910;8.352;2023-02-02T04:35:15;28.53;;;6.17;;
21128;SDS011;10722;51.910;8.352;2023-02-02T04:38:01;32.87;;;5.90;;
21128;SDS011;10722;51.910;8.352;2023-02-02T04:40:46;31.77;;;6.40;;
21128;SDS011;10722;51.910;8.352;2023-02-02T04:43:32;25.70;;;5.90;;
21128;SDS011;10722;51.910;8.352;2023-02-02T04:46:18;30.10;;;6.20;;
21128;SDS011;10722;51.910;8.352;2023-02-02T04:49:03;27.93;;;6.13;;
21128;SDS011;10722;51.910;8.352;2023-02-02T04:51:49;24.23;;;5.90;;
21128;SDS011;10722;51.910;8.352;2023-02-02T04:54:34;30.97;;;6.97;;
21128;SDS011;10722;51.910;8.352;2023-02-02T04:57:19;27.97;;;6.10;;
21128;SDS011;10722;51.910;8.352;2023-02-02T05:00:05;26.60;;;5.53;;
21128;SDS011;10722;51.910;8.352;2023-02-02T05:02:50;25.43;;;5.50;;
21128;SDS011;10722;51.910;8.352;2023-02-02T05:05:36;23.27;;;5.23;;
21128;SDS011;10722;51.910;8.352;2023-02-02T05:08:21;26.07;;;5.57;;
21128;SDS011;10722;51.910;8.352;2023-02-02T05:11:10;30.90;;;5.97;;
21128;SDS011;10722;51.910;8.352;2023-02-02T05:13:59;21.90;;;5.53;;
21128;SDS011;10722;51.910;8.352;2023-02-02T05:16:44;30.73;;;5.80;;
21128;SDS011;10722;51.910;8.352;2023-02-02T05:19:30;28.20;;;5.47;;
21128;SDS011;10722;51.910;8.352;2023-02-02T05:22:15;30.87;;;5.40;;
21128;SDS011;10722;51.910;8.352;2023-02-02T05:25:01;27.23;;;5.70;;
21128;SDS011;10722;51.910;8.352;2023-02-02T05:27:46;25.70;;;5.60;;
21128;SDS011;10722;51.910;8.352;2023-02-02T05:30:31;27.13;;;5.03;;
21128;SDS011;10722;51.910;8.352;2023-02-02T05:33:17;21.87;;;4.80;;
21128;SDS011;10722;51.910;8.352;2023-02-02T05:36:03;21.53;;;4.97;;
21128;SDS011;10722;51.910;8.352;2023-02-02T05:38:49;22.97;;;5.27;;
21128;SDS011;10722;51.910;8.352;2023-02-02T05:41:34;30.43;;;4.97;;
21128;SDS011;10722;51.910;8.352;2023-02-02T05:44:19;24.50;;;5.77;;
21128;SDS011;10722;51.910;8.352;2023-02-02T05:47:04;27.60;;;5.60;;
21128;SDS011;10722;51.910;8.352;2023-02-02T05:49:50;27.43;;;5.17;;
21128;SDS011;10722;51.910;8.352;2023-02-02T05:52:35;25.33;;;4.70;;
21128;SDS011;10722;51.910;8.352;2023-02-02T05:55:22;24.10;;;4.93;;
21128;SDS011;10722;51.910;8.352;2023-02-02T05:58:08;27.63;;;5.27;;
21128;SDS011;10722;51.910;8.352;2023-02-02T06:00:54;31.20;;;5.07;;
21128;SDS011;10722;51.910;8.352;2023-02-02T06:03:41;31.37;;;5.33;;
21128;SDS011;10722;51.910;8.352;2023-02-02T06:06:26;26.53;;;5.00;;
21128;SDS011;10722;51.910;8.352;2023-02-02T06:09:12;26.90;;;5.10;;
21128;SDS011;10722;51.910;8.352;2023-02-02T06:11:57;25.83;;;5.30;;
21128;SDS011;10722;51.910;8.352;2023-02-02T06:14:43;29.57;;;5.43;;
21128;SDS011;10722;51.910;8.352;2023-02-02T06:17:28;23.53;;;5.10;;
21128;SDS011;10722;51.910;8.352;2023-02-02T06:20:14;21.20;;;4.60;;
21128;SDS011;10722;51.910;8.352;2023-02-02T06:22:59;28.80;;;5.13;;
21128;SDS011;10722;51.910;8.352;2023-02-02T06:25:44;21.73;;;3.80;;
21128;SDS011;10722;51.910;8.352;2023-02-02T06:28:30;24.30;;;4.30;;
21128;SDS011;10722;51.910;8.352;2023-02-02T06:31:16;19.23;;;3.50;;
21128;SDS011;10722;51.910;8.352;2023-02-02T06:34:02;24.10;;;4.03;;
21128;SDS011;10722;51.910;8.352;2023-02-02T06:36:47;22.77;;;3.70;;
21128;SDS011;10722;51.910;8.352;2023-02-02T06:39:32;23.00;;;3.73;;
21128;SDS011;10722;51.910;8.352;2023-02-02T06:42:18;25.40;;;3.67;;
21128;SDS011;10722;51.910;8.352;2023-02-02T06:45:05;23.40;;;4.33;;
21128;SDS011;10722;51.910;8.352;2023-02-02T06:47:51;26.40;;;4.43;;
21128;SDS011;10722;51.910;8.352;2023-02-02T06:50:37;23.53;;;3.83;;
21128;SDS011;10722;51.910;8.352;2023-02-02T06:53:22;34.40;;;9.33;;
21128;SDS011;10722;51.910;8.352;2023-02-02T06:56:08;27.83;;;6.97;;
21128;SDS011;10722;51.910;8.352;2023-02-02T06:58:56;27.23;;;4.83;;
21128;SDS011;10722;51.910;8.352;2023-02-02T07:01:41;24.97;;;4.00;;
21128;SDS011;10722;51.910;8.352;2023-02-02T07:04:27;19.83;;;4.07;;
21128;SDS011;10722;51.910;8.352;2023-02-02T07:07:12;25.33;;;4.53;;
21128;SDS011;10722;51.910;8.352;2023-02-02T07:09:57;26.53;;;4.87;;
21128;SDS011;10722;51.910;8.352;2023-02-02T07:12:42;21.40;;;4.53;;
21128;SDS011;10722;51.910;8.352;2023-02-02T07:15:28;19.67;;;4.67;;
21128;SDS011;10722;51.910;8.352;2023-02-02T07:18:13;27.93;;;5.47;;
21128;SDS011;10722;51.910;8.352;2023-02-02T07:20:59;20.17;;;4.60;;
21128;SDS011;10722;51.910;8.352;2023-02-02T07:23:44;25.50;;;4.50;;
21128;SDS011;10722;51.910;8.352;2023-02-02T07:26:30;20.97;;;4.73;;
21128;SDS011;10722;51.910;8.352;2023-02-02T07:29:15;22.97;;;4.23;;
21128;SDS011;10722;51.910;8.352;2023-02-02T07:32:01;20.90;;;4.40;;
21128;SDS011;10722;51.910;8.352;2023-02-02T07:34:46;18.40;;;4.33;;
21128;SDS011;10722;51.910;8.352;2023-02-02T07:37:31;17.10;;;3.60;;
21128;SDS011;10722;51.910;8.352;2023-02-02T07:40:17;16.13;;;4.40;;
21128;SDS011;10722;51.910;8.352;2023-02-02T07:43:02;19.33;;;4.07;;
21128;SDS011;10722;51.910;8.352;2023-02-02T07:45:47;15.87;;;3.97;;
21128;SDS011;10722;51.910;8.352;2023-02-02T07:48:33;19.97;;;4.20;;
21128;SDS011;10722;51.910;8.352;2023-02-02T07:51:18;20.63;;;4.17;;
21128;SDS011;10722;51.910;8.352;2023-02-02T07:54:04;24.63;;;4.23;;
21128;SDS011;10722;51.910;8.352;2023-02-02T07:56:49;17.47;;;3.73;;
21128;SDS011;10722;51.910;8.352;2023-02-02T07:59:34;20.37;;;3.77;;
21128;SDS011;10722;51.910;8.352;2023-02-02T08:02:20;14.63;;;3.60;;
21128;SDS011;10722;51.910;8.352;2023-02-02T08:05:05;19.13;;;4.37;;
21128;SDS011;10722;51.910;8.352;2023-02-02T08:07:51;18.20;;;4.93;;
21128;SDS011;10722;51.910;8.352;2023-02-02T08:10:36;16.77;;;3.53;;
21128;SDS011;10722;51.910;8.352;2023-02-02T08:13:22;17.43;;;3.60;;
21128;SDS011;10722;51.910;8.352;2023-02-02T08:16:07;19.73;;;4.37;;
21128;SDS011;10722;51.910;8.352;2023-02-02T08:18:53;17.70;;;3.60;;
21128;SDS011;10722;51.910;8.352;2023-02-02T08:21:38;18.23;;;3.90;;
21128;SDS011;10722;51.910;8.352;2023-02-02T08:24:24;14.67;;;3.77;;
21128;SDS011;10722;51.910;8.352;2023-02-02T08:27:10;18.03;;;3.63;;
21128;SDS011;10722;51.910;8.352;2023-02-02T08:29:55;16.30;;;4.40;;
21128;SDS011;10722;51.910;8.352;2023-02-02T08:32:40;21.17;;;4.47;;
21128;SDS011;10722;51.910;8.352;2023-02-02T08:35:26;12.33;;;3.27;;
21128;SDS011;10722;51.910;8.352;2023-02-02T08:38:11;15.30;;;3.10;;
21128;SDS011;10722;51.910;8.352;2023-02-02T08:44:29;14.87;;;3.23;;
21128;SDS011;10722;51.910;8.352;2023-02-02T08:47:34;16.20;;;3.30;;
21128;SDS011;10722;51.910;8.352;2023-02-02T08:50:19;18.93;;;3.57;;
21128;SDS011;10722;51.910;8.352;2023-02-02T08:53:04;18.13;;;3.83;;
21128;SDS011;10722;51.910;8.352;2023-02-02T08:55:57;16.13;;;3.43;;
21128;SDS011;10722;51.910;8.352;2023-02-02T08:58:46;19.00;;;3.50;;
21128;SDS011;10722;51.910;8.352;2023-02-02T09:01:34;14.50;;;3.10;;
21128;SDS011;10722;51.910;8.352;2023-02-02T09:04:19;20.30;;;3.30;;
21128;SDS011;10722;51.910;8.352;2023-02-02T09:07:04;17.03;;;3.40;;
21128;SDS011;10722;51.910;8.352;2023-02-02T09:09:49;15.77;;;3.37;;
21128;SDS011;10722;51.910;8.352;2023-02-02T09:12:35;15.67;;;3.23;;
21128;SDS011;10722;51.910;8.352;2023-02-02T09:15:19;15.03;;;3.80;;
21128;SDS011;10722;51.910;8.352;2023-02-02T09:18:05;15.20;;;3.13;;
21128;SDS011;10722;51.910;8.352;2023-02-02T09:20:50;15.10;;;3.23;;
21128;SDS011;10722;51.910;8.352;2023-02-02T09:23:36;17.97;;;3.33;;
21128;SDS011;10722;51.910;8.352;2023-02-02T09:26:27;20.17;;;3.30;;
21128;SDS011;10722;51.910;8.352;2023-02-02T09:29:16;17.33;;;3.40;;
21128;SDS011;10722;51.910;8.352;2023-02-02T09:32:01;18.23;;;3.63;;
21128;SDS011;10722;51.910;8.352;2023-02-02T09:34:46;17.47;;;2.93;;
21128;SDS011;10722;51.910;8.352;2023-02-02T09:37:35;18.23;;;3.10;;
21128;SDS011;10722;51.910;8.352;2023-02-02T09:40:20;15.33;;;3.27;;
21128;SDS011;10722;51.910;8.352;2023-02-02T09:46:00;16.80;;;3.30;;
21128;SDS011;10722;51.910;8.352;2023-02-02T09:48:53;14.43;;;3.23;;
21128;SDS011;10722;51.910;8.352;2023-02-02T09:51:46;16.27;;;3.30;;
21128;SDS011;10722;51.910;8.352;2023-02-02T09:54:41;19.63;;;3.90;;
21128;SDS011;10722;51.910;8.352;2023-02-02T09:57:32;12.90;;;2.80;;
21128;SDS011;10722;51.910;8.352;2023-02-02T10:00:26;14.93;;;2.77;;
21128;SDS011;10722;51.910;8.352;2023-02-02T10:06:35;15.07;;;2.80;;
21128;SDS011;10722;51.910;8.352;2023-02-02T10:12:34;18.70;;;3.27;;
21128;SDS011;10722;51.910;8.352;2023-02-02T10:18:53;17.93;;;3.97;;
21128;SDS011;10722;51.910;8.352;2023-02-02T10:24:46;15.70;;;4.27;;
21128;SDS011;10722;51.910;8.352;2023-02-02T10:27:38;18.23;;;4.33;;
21128;SDS011;10722;51.910;8.352;2023-02-02T10:30:24;19.90;;;3.97;;
21128;SDS011;10722;51.910;8.352;2023-02-02T10:33:20;14.73;;;3.57;;
21128;SDS011;10722;51.910;8.352;2023-02-02T10:36:21;18.23;;;3.63;;
21128;SDS011;10722;51.910;8.352;2023-02-02T10:42:21;15.67;;;3.37;;
21128;SDS011;10722;51.910;8.352;2023-02-02T10:45:14;17.97;;;3.50;;
21128;SDS011;10722;51.910;8.352;2023-02-02T10:48:03;15.93;;;3.60;;
21128;SDS011;10722;51.910;8.352;2023-02-02T10:50:58;56.77;;;28.40;;
21128;SDS011;10722;51.910;8.352;2023-02-02T10:53:48;28.97;;;12.70;;
21128;SDS011;10722;51.910;8.352;2023-02-02T10:56:35;20.13;;;3.20;;
21128;SDS011;10722;51.910;8.352;2023-02-02T10:59:26;15.87;;;3.10;;
21128;SDS011;10722;51.910;8.352;2023-02-02T11:02:17;20.63;;;4.70;;
21128;SDS011;10722;51.910;8.352;2023-02-02T11:05:05;18.73;;;4.43;;
21128;SDS011;10722;51.910;8.352;2023-02-02T11:07:56;19.23;;;4.40;;
21128;SDS011;10722;51.910;8.352;2023-02-02T11:10:45;19.87;;;4.80;;
21128;SDS011;10722;51.910;8.352;2023-02-02T11:13:32;15.40;;;3.87;;
21128;SDS011;10722;51.910;8.352;2023-02-02T11:19:29;17.93;;;3.77;;
21128;SDS011;10722;51.910;8.352;2023-02-02T11:22:27;16.30;;;4.20;;
21128;SDS011;10722;51.910;8.352;2023-02-02T11:25:36;16.43;;;3.97;;
21128;SDS011;10722;51.910;8.352;2023-02-02T11:28:21;20.80;;;4.50;;
21128;SDS011;10722;51.910;8.352;2023-02-02T11:31:09;18.57;;;3.70;;
21128;SDS011;10722;51.910;8.352;2023-02-02T11:34:06;14.13;;;3.50;;
21128;SDS011;10722;51.910;8.352;2023-02-02T11:43:06;19.37;;;3.87;;
21128;SDS011;10722;51.910;8.352;2023-02-02T11:46:04;18.87;;;4.13;;
21128;SDS011;10722;51.910;8.352;2023-02-02T11:52:06;17.57;;;3.97;;
21128;SDS011;10722;51.910;8.352;2023-02-02T11:54:52;18.97;;;4.17;;
21128;SDS011;10722;51.910;8.352;2023-02-02T11:57:40;18.10;;;4.33;;
21128;SDS011;10722;51.910;8.352;2023-02-02T12:00:59;19.13;;;4.17;;
21128;SDS011;10722;51.910;8.352;2023-02-02T12:03:47;19.63;;;4.00;;
21128;SDS011;10722;51.910;8.352;2023-02-02T12:06:33;20.23;;;4.90;;
21128;SDS011;10722;51.910;8.352;2023-02-02T12:09:22;21.47;;;5.20;;
21128;SDS011;10722;51.910;8.352;2023-02-02T12:13:14;22.57;;;5.67;;
21128;SDS011;10722;51.910;8.352;2023-02-02T12:34:33;15.90;;;4.60;;
21128;SDS011;10722;51.910;8.352;2023-02-02T12:40:54;22.10;;;5.17;;
21128;SDS011;10722;51.910;8.352;2023-02-02T12:47:33;21.57;;;5.43;;
21128;SDS011;10722;51.910;8.352;2023-02-02T12:50:49;23.20;;;6.03;;
21128;SDS011;10722;51.910;8.352;2023-02-02T12:53:48;23.77;;;5.70;;
21128;SDS011;10722;51.910;8.352;2023-02-02T12:57:13;19.40;;;5.40;;
21128;SDS011;10722;51.910;8.352;2023-02-02T13:06:51;20.07;;;6.07;;
21128;SDS011;10722;51.910;8.352;2023-02-02T13:09:50;22.07;;;6.17;;
21128;SDS011;10722;51.910;8.352;2023-02-02T13:12:45;22.40;;;7.10;;
21128;SDS011;10722;51.910;8.352;2023-02-02T13:15:41;23.23;;;6.60;;
21128;SDS011;10722;51.910;8.352;2023-02-02T13:18:30;21.07;;;6.37;;
21128;SDS011;10722;51.910;8.352;2023-02-02T13:21:22;20.87;;;6.67;;
21128;SDS011;10722;51.910;8.352;2023-02-02T13:24:09;21.40;;;6.57;;
21128;SDS011;10722;51.910;8.352;2023-02-02T13:26:59;19.90;;;6.30;;
21128;SDS011;10722;51.910;8.352;2023-02-02T13:30:31;19.37;;;6.10;;
21128;SDS011;10722;51.910;8.352;2023-02-02T13:33:04;20.40;;;6.50;;
21128;SDS011;10722;51.910;8.352;2023-02-02T13:39:12;20.63;;;6.17;;
21128;SDS011;10722;51.910;8.352;2023-02-02T13:42:04;19.03;;;6.60;;
21128;SDS011;10722;51.910;8.352;2023-02-02T13:44:53;18.53;;;6.07;;
21128;SDS011;10722;51.910;8.352;2023-02-02T13:47:46;21.93;;;6.23;;
21128;SDS011;10722;51.910;8.352;2023-02-02T13:50:39;18.07;;;6.17;;
21128;SDS011;10722;51.910;8.352;2023-02-02T13:53:45;20.17;;;5.90;;
21128;SDS011;10722;51.910;8.352;2023-02-02T13:59:59;23.97;;;7.10;;
21128;SDS011;10722;51.910;8.352;2023-02-02T14:03:03;22.70;;;7.43;;
21128;SDS011;10722;51.910;8.352;2023-02-02T14:06:01;19.87;;;7.77;;
21128;SDS011;10722;51.910;8.352;2023-02-02T14:08:54;22.10;;;7.63;;
21128;SDS011;10722;51.910;8.352;2023-02-02T14:11:39;22.87;;;8.40;;
21128;SDS011;10722;51.910;8.352;2023-02-02T14:14:40;25.43;;;8.50;;
21128;SDS011;10722;51.910;8.352;2023-02-02T14:26:44;20.93;;;7.00;;
21128;SDS011;10722;51.910;8.352;2023-02-02T14:37:56;21.87;;;7.83;;
21128;SDS011;10722;51.910;8.352;2023-02-02T14:40:57;16.83;;;6.63;;
21128;SDS011;10722;51.910;8.352;2023-02-02T14:43:54;17.77;;;6.30;;
21128;SDS011;10722;51.910;8.352;2023-02-02T14:46:39;16.93;;;6.20;;
21128;SDS011;10722;51.910;8.352;2023-02-02T14:49:25;20.20;;;6.63;;
21128;SDS011;10722;51.910;8.352;2023-02-02T14:52:19;19.63;;;6.93;;
21128;SDS011;10722;51.910;8.352;2023-02-02T14:55:24;23.17;;;7.23;;
21128;SDS011;10722;51.910;8.352;2023-02-02T14:58:17;20.23;;;8.53;;
21128;SDS011;10722;51.910;8.352;2023-02-02T15:07:34;30.57;;;11.57;;
21128;SDS011;10722;51.910;8.352;2023-02-02T15:13:34;27.87;;;13.07;;
21128;SDS011;10722;51.910;8.352;2023-02-02T15:16:22;23.23;;;11.80;;
21128;SDS011;10722;51.910;8.352;2023-02-02T15:19:16;26.10;;;12.17;;
21128;SDS011;10722;51.910;8.352;2023-02-02T15:25:16;23.13;;;10.63;;
21128;SDS011;10722;51.910;8.352;2023-02-02T15:37:09;21.17;;;9.73;;
21128;SDS011;10722;51.910;8.352;2023-02-02T15:40:02;23.17;;;11.23;;
21128;SDS011;10722;51.910;8.352;2023-02-02T15:42:51;26.30;;;12.27;;
21128;SDS011;10722;51.910;8.352;2023-02-02T15:48:45;26.63;;;10.60;;
21128;SDS011;10722;51.910;8.352;2023-02-02T15:51:31;22.90;;;9.93;;
21128;SDS011;10722;51.910;8.352;2023-02-02T16:00:30;31.07;;;14.70;;
21128;SDS011;10722;51.910;8.352;2023-02-02T16:03:18;30.17;;;15.67;;
21128;SDS011;10722;51.910;8.352;2023-02-02T16:06:10;35.43;;;17.43;;
21128;SDS011;10722;51.910;8.352;2023-02-02T16:08:56;40.57;;;18.60;;
21128;SDS011;10722;51.910;8.352;2023-02-02T16:11:41;31.17;;;16.30;;
21128;SDS011;10722;51.910;8.352;2023-02-02T16:14:28;32.77;;;17.83;;
21128;SDS011;10722;51.910;8.352;2023-02-02T16:17:23;39.43;;;18.70;;
21128;SDS011;10722;51.910;8.352;2023-02-02T16:20:13;33.10;;;16.33;;
21128;SDS011;10722;51.910;8.352;2023-02-02T16:23:00;38.30;;;21.07;;
21128;SDS011;10722;51.910;8.352;2023-02-02T16:25:49;31.13;;;16.57;;
21128;SDS011;10722;51.910;8.352;2023-02-02T16:28:37;32.03;;;16.70;;
21128;SDS011;10722;51.910;8.352;2023-02-02T16:31:24;30.43;;;15.10;;
21128;SDS011;10722;51.910;8.352;2023-02-02T16:34:43;37.37;;;14.90;;
21128;SDS011;10722;51.910;8.352;2023-02-02T16:40:22;38.77;;;15.63;;
21128;SDS011;10722;51.910;8.352;2023-02-02T16:43:17;34.60;;;17.07;;
21128;SDS011;10722;51.910;8.352;2023-02-02T16:46:05;42.73;;;22.07;;
21128;SDS011;10722;51.910;8.352;2023-02-02T16:48:55;40.00;;;18.97;;
21128;SDS011;10722;51.910;8.352;2023-02-02T16:51:44;37.53;;;18.13;;
21128;SDS011;10722;51.910;8.352;2023-02-02T16:54:30;34.97;;;18.83;;
21128;SDS011;10722;51.910;8.352;2023-02-02T16:57:34;34.93;;;17.93;;
21128;SDS011;10722;51.910;8.352;2023-02-02T17:00:24;41.53;;;19.57;;
21128;SDS011;10722;51.910;8.352;2023-02-02T17:03:14;39.33;;;20.83;;
21128;SDS011;10722;51.910;8.352;2023-02-02T17:06:02;42.50;;;22.40;;
21128;SDS011;10722;51.910;8.352;2023-02-02T17:08:50;46.77;;;24.23;;
21128;SDS011;10722;51.910;8.352;2023-02-02T17:11:35;50.63;;;27.80;;
21128;SDS011;10722;51.910;8.352;2023-02-02T17:14:28;55.83;;;28.43;;
21128;SDS011;10722;51.910;8.352;2023-02-02T17:17:16;60.20;;;30.83;;
21128;SDS011;10722;51.910;8.352;2023-02-02T17:20:03;57.63;;;31.60;;
21128;SDS011;10722;51.910;8.352;2023-02-02T17:22:50;66.40;;;32.80;;
21128;SDS011;10722;51.910;8.352;2023-02-02T17:25:41;59.97;;;32.83;;
21128;SDS011;10722;51.910;8.352;2023-02-02T17:28:27;65.50;;;33.93;;
21128;SDS011;10722;51.910;8.352;2023-02-02T17:31:14;69.67;;;35.27;;
21128;SDS011;10722;51.910;8.352;2023-02-02T17:34:00;59.13;;;32.47;;
21128;SDS011;10722;51.910;8.352;2023-02-02T17:36:44;65.77;;;34.77;;
21128;SDS011;10722;51.910;8.352;2023-02-02T17:39:30;69.83;;;37.03;;
21128;SDS011;10722;51.910;8.352;2023-02-02T17:42:20;73.83;;;37.57;;
21128;SDS011;10722;51.910;8.352;2023-02-02T17:45:10;81.07;;;39.40;;
21128;SDS011;10722;51.910;8.352;2023-02-02T17:48:00;85.47;;;41.33;;
21128;SDS011;10722;51.910;8.352;2023-02-02T17:50:46;90.83;;;43.47;;
21128;SDS011;10722;51.910;8.352;2023-02-02T17:53:32;78.03;;;41.70;;
21128;SDS011;10722;51.910;8.352;2023-02-02T17:56:17;90.63;;;44.57;;
21128;SDS011;10722;51.910;8.352;2023-02-02T17:59:02;102.37;;;49.83;;
21128;SDS011;10722;51.910;8.352;2023-02-02T18:01:47;93.87;;;46.10;;
21128;SDS011;10722;51.910;8.352;2023-02-02T18:04:34;107.90;;;49.97;;
21128;SDS011;10722;51.910;8.352;2023-02-02T18:07:19;94.73;;;47.93;;
21128;SDS011;10722;51.910;8.352;2023-02-02T18:10:05;85.33;;;44.73;;
21128;SDS011;10722;51.910;8.352;2023-02-02T18:12:51;97.10;;;49.07;;
21128;SDS011;10722;51.910;8.352;2023-02-02T18:15:37;103.07;;;48.87;;
21128;SDS011;10722;51.910;8.352;2023-02-02T18:18:22;87.30;;;42.27;;
21128;SDS011;10722;51.910;8.352;2023-02-02T18:21:08;94.23;;;39.23;;
21128;SDS011;10722;51.910;8.352;2023-02-02T18:23:54;96.40;;;40.67;;
21128;SDS011;10722;51.910;8.352;2023-02-02T18:26:40;92.20;;;38.80;;
21128;SDS011;10722;51.910;8.352;2023-02-02T18:29:25;90.70;;;38.60;;
21128;SDS011;10722;51.910;8.352;2023-02-02T18:32:10;84.43;;;37.97;;
21128;SDS011;10722;51.910;8.352;2023-02-02T18:34:55;83.50;;;36.73;;
21128;SDS011;10722;51.910;8.352;2023-02-02T18:37:41;96.03;;;38.07;;
21128;SDS011;10722;51.910;8.352;2023-02-02T18:40:26;88.97;;;37.87;;
21128;SDS011;10722;51.910;8.352;2023-02-02T18:43:11;81.77;;;34.37;;
21128;SDS011;10722;51.910;8.352;2023-02-02T18:46:01;86.57;;;36.67;;
21128;SDS011;10722;51.910;8.352;2023-02-02T18:48:47;85.83;;;35.10;;
21128;SDS011;10722;51.910;8.352;2023-02-02T18:51:32;87.63;;;35.93;;
21128;SDS011;10722;51.910;8.352;2023-02-02T18:54:18;81.03;;;35.53;;
21128;SDS011;10722;51.910;8.352;2023-02-02T18:57:03;86.47;;;37.27;;
21128;SDS011;10722;51.910;8.352;2023-02-02T18:59:48;80.60;;;35.13;;
21128;SDS011;10722;51.910;8.352;2023-02-02T19:02:36;84.30;;;38.50;;
21128;SDS011;10722;51.910;8.352;2023-02-02T19:05:21;79.90;;;35.17;;
21128;SDS011;10722;51.910;8.352;2023-02-02T19:08:06;80.47;;;33.40;;
21128;SDS011;10722;51.910;8.352;2023-02-02T19:10:55;86.20;;;33.97;;
21128;SDS011;10722;51.910;8.352;2023-02-02T19:13:44;87.27;;;34.47;;